sensor_id;sensor_type;location;lat;lon;timestamp;temperature;humidity
4107;DHT22;21906;50.812;7.132;2023-02-01T00:01:49;8.20;80.20
4107;DHT22;21906;50.812;7.132;2023-02-01T00:04:15;8.30;79.80
4107;DHT22;21906;50.812;7.132;2023-02-01T00:06:40;8.30;79.70
4107;DHT22;21906;50.812;7.132;2023-02-01T00:09:06;8.40;79.60
4107;DHT22;21906;50.812;7.132;2023-02-01T00:11:32;8.40;79.30
4107;DHT22;21906;50.812;7.132;2023-02-01T00:13:58;8.30;79.40
4107;DHT22;21906;50.812;7.132;2023-02-01T00:16:26;8.30;79.50
4107;DHT22;21906;50.812;7.132;2023-02-01T00:19:00;8.30;79.60
4107;DHT22;21906;50.812;7.132;2023-02-01T00:21:26;8.30;79.40
4107;DHT22;21906;50.812;7.132;2023-02-01T00:23:52;8.30;79.50
4107;DHT22;21906;50.812;7.132;2023-02-01T00:26:22;8.20;79.60
4107;DHT22;21906;50.812;7.132;2023-02-01T00:28:50;8.20;79.50
4107;DHT22;21906;50.812;7.132;2023-02-01T00:31:15;8.20;79.30
4107;DHT22;21906;50.812;7.132;2023-02-01T00:33:41;8.20;79.60
4107;DHT22;21906;50.812;7.132;2023-02-01T00:36:08;8.20;79.60
4107;DHT22;21906;50.812;7.132;2023-02-01T00:38:37;8.20;79.30
4107;DHT22;21906;50.812;7.132;2023-02-01T00:41:23;8.20;79.40
4107;DHT22;21906;50.812;7.132;2023-02-01T00:43:49;8.10;79.50
4107;DHT22;21906;50.812;7.132;2023-02-01T00:46:17;8.00;79.70
4107;DHT22;21906;50.812;7.132;2023-02-01T00:48:43;8.00;79.60
4107;DHT22;21906;50.812;7.132;2023-02-01T00:51:11;8.10;79.10
4107;DHT22;21906;50.812;7.132;2023-02-01T00:53:37;8.00;79.10
4107;DHT22;21906;50.812;7.132;2023-02-01T00:56:03;8.00;78.60
4107;DHT22;21906;50.812;7.132;2023-02-01T00:58:31;8.00;78.20
4107;DHT22;21906;50.812;7.132;2023-02-01T01:01:05;8.00;78.50
4107;DHT22;21906;50.812;7.132;2023-02-01T01:03:32;8.00;78.00
4107;DHT22;21906;50.812;7.132;2023-02-01T01:05:59;8.00;77.60
4107;DHT22;21906;50.812;7.132;2023-02-01T01:08:25;8.00;77.10
4107;DHT22;21906;50.812;7.132;2023-02-01T01:10:52;7.90;76.90
4107;DHT22;21906;50.812;7.132;2023-02-01T01:13:17;8.00;75.70
4107;DHT22;21906;50.812;7.132;2023-02-01T01:15:43;8.00;75.20
4107;DHT22;21906;50.812;7.132;2023-02-01T01:18:09;8.00;75.50
4107;DHT22;21906;50.812;7.132;2023-02-01T01:20:36;8.00;74.90
4107;DHT22;21906;50.812;7.132;2023-02-01T01:23:03;7.90;74.80
4107;DHT22;21906;50.812;7.132;2023-02-01T01:25:29;7.90;75.00
4107;DHT22;21906;50.812;7.132;2023-02-01T01:27:55;7.90;75.00
4107;DHT22;21906;50.812;7.132;2023-02-01T01:30:21;7.90;74.70
4107;DHT22;21906;50.812;7.132;2023-02-01T01:32:46;8.00;73.60
4107;DHT22;21906;50.812;7.132;2023-02-01T01:35:12;8.00;72.90
4107;DHT22;21906;50.812;7.132;2023-02-01T01:37:38;8.00;73.10
4107;DHT22;21906;50.812;7.132;2023-02-01T01:40:05;7.90;73.00
4107;DHT22;21906;50.812;7.132;2023-02-01T01:42:40;8.00;73.10
4107;DHT22;21906;50.812;7.132;2023-02-01T01:45:18;7.90;72.80
4107;DHT22;21906;50.812;7.132;2023-02-01T01:47:48;7.90;72.60
4107;DHT22;21906;50.812;7.132;2023-02-01T01:50:21;7.90;72.70
4107;DHT22;21906;50.812;7.132;2023-02-01T01:52:49;7.90;72.30
4107;DHT22;21906;50.812;7.132;2023-02-01T01:55:18;7.90;71.80
4107;DHT22;21906;50.812;7.132;2023-02-01T01:57:51;8.00;71.40
4107;DHT22;21906;50.812;7.132;2023-02-01T02:00:20;8.10;71.10
4107;DHT22;21906;50.812;7.132;2023-02-01T02:02:48;8.20;70.40
4107;DHT22;21906;50.812;7.132;2023-02-01T02:05:15;8.10;70.30
4107;DHT22;21906;50.812;7.132;2023-02-01T02:07:46;8.10;70.40
4107;DHT22;21906;50.812;7.132;2023-02-01T02:10:13;8.00;70.80
4107;DHT22;21906;50.812;7.132;2023-02-01T02:12:44;8.10;70.80
4107;DHT22;21906;50.812;7.132;2023-02-01T02:15:14;8.10;71.10
4107;DHT22;21906;50.812;7.132;2023-02-01T02:20:45;8.10;70.80
4107;DHT22;21906;50.812;7.132;2023-02-01T02:26:25;7.90;71.40
4107;DHT22;21906;50.812;7.132;2023-02-01T02:34:31;8.00;71.60
4107;DHT22;21906;50.812;7.132;2023-02-01T02:39:54;7.90;71.80
4107;DHT22;21906;50.812;7.132;2023-02-01T02:42:39;8.00;71.50
4107;DHT22;21906;50.812;7.132;2023-02-01T02:45:41;7.90;72.00
4107;DHT22;21906;50.812;7.132;2023-02-01T02:48:31;8.00;72.00
4107;DHT22;21906;50.812;7.132;2023-02-01T02:51:00;7.90;71.90
4107;DHT22;21906;50.812;7.132;2023-02-01T02:56:44;8.00;71.90
4107;DHT22;21906;50.812;7.132;2023-02-01T02:59:28;7.90;72.10
4107;DHT22;21906;50.812;7.132;2023-02-01T03:02:15;7.90;71.90
4107;DHT22;21906;50.812;7.132;2023-02-01T03:05:01;8.00;71.70
4107;DHT22;21906;50.812;7.132;2023-02-01T03:13:36;7.90;71.80
4107;DHT22;21906;50.812;7.132;2023-02-01T03:16:47;7.90;72.30
4107;DHT22;21906;50.812;7.132;2023-02-01T03:19:22;7.80;72.60
4107;DHT22;21906;50.812;7.132;2023-02-01T03:26:58;7.90;72.30
4107;DHT22;21906;50.812;7.132;2023-02-01T03:29:32;8.00;72.10
4107;DHT22;21906;50.812;7.132;2023-02-01T03:32:01;8.00;72.10
4107;DHT22;21906;50.812;7.132;2023-02-01T03:34:27;7.90;72.20
4107;DHT22;21906;50.812;7.132;2023-02-01T03:36:58;8.00;72.00
4107;DHT22;21906;50.812;7.132;2023-02-01T03:39:38;8.00;71.90
4107;DHT22;21906;50.812;7.132;2023-02-01T03:42:10;8.00;72.00
4107;DHT22;21906;50.812;7.132;2023-02-01T03:44:49;8.00;71.80
4107;DHT22;21906;50.812;7.132;2023-02-01T03:47:25;8.00;72.00
4107;DHT22;21906;50.812;7.132;2023-02-01T03:50:00;8.20;71.30
4107;DHT22;21906;50.812;7.132;2023-02-01T03:55:01;8.10;71.20
4107;DHT22;21906;50.812;7.132;2023-02-01T03:57:31;8.00;71.60
4107;DHT22;21906;50.812;7.132;2023-02-01T04:00:18;8.00;71.40
4107;DHT22;21906;50.812;7.132;2023-02-01T04:02:44;8.00;71.30
4107;DHT22;21906;50.812;7.132;2023-02-01T04:05:10;8.00;71.10
4107;DHT22;21906;50.812;7.132;2023-02-01T04:07:35;8.00;71.20
4107;DHT22;21906;50.812;7.132;2023-02-01T04:10:01;8.00;71.20
4107;DHT22;21906;50.812;7.132;2023-02-01T04:12:28;7.90;71.50
4107;DHT22;21906;50.812;7.132;2023-02-01T04:14:54;7.90;71.50
4107;DHT22;21906;50.812;7.132;2023-02-01T04:17:20;7.90;71.50
4107;DHT22;21906;50.812;7.132;2023-02-01T04:19:45;7.80;71.90
4107;DHT22;21906;50.812;7.132;2023-02-01T04:22:11;7.70;71.90
4107;DHT22;21906;50.812;7.132;2023-02-01T04:24:37;7.80;71.40
4107;DHT22;21906;50.812;7.132;2023-02-01T04:27:03;7.80;71.40
4107;DHT22;21906;50.812;7.132;2023-02-01T04:29:29;7.90;71.30
4107;DHT22;21906;50.812;7.132;2023-02-01T04:31:54;7.90;71.20
4107;DHT22;21906;50.812;7.132;2023-02-01T04:34:20;7.80;71.20
4107;DHT22;21906;50.812;7.132;2023-02-01T04:36:48;7.80;71.50
4107;DHT22;21906;50.812;7.132;2023-02-01T04:39:13;7.80;71.80
4107;DHT22;21906;50.812;7.132;2023-02-01T04:41:39;7.80;71.80
4107;DHT22;21906;50.812;7.132;2023-02-01T04:44:04;7.80;71.80
4107;DHT22;21906;50.812;7.132;2023-02-01T04:46:30;7.80;71.60
4107;DHT22;21906;50.812;7.132;2023-02-01T04:48:56;7.90;71.30
4107;DHT22;21906;50.812;7.132;2023-02-01T04:51:21;8.00;70.70
4107;DHT22;21906;50.812;7.132;2023-02-01T04:53:47;7.90;70.90
4107;DHT22;21906;50.812;7.132;2023-02-01T04:56:13;7.90;70.70
4107;DHT22;21906;50.812;7.132;2023-02-01T04:58:38;7.90;70.80
4107;DHT22;21906;50.812;7.132;2023-02-01T05:01:05;7.80;71.20
4107;DHT22;21906;50.812;7.132;2023-02-01T05:03:34;7.80;70.90
4107;DHT22;21906;50.812;7.132;2023-02-01T05:06:00;7.70;71.00
4107;DHT22;21906;50.812;7.132;2023-02-01T05:08:26;7.60;71.60
4107;DHT22;21906;50.812;7.132;2023-02-01T05:10:54;7.60;71.60
4107;DHT22;21906;50.812;7.132;2023-02-01T05:13:19;7.50;71.70
4107;DHT22;21906;50.812;7.132;2023-02-01T05:16:04;7.50;71.90
4107;DHT22;21906;50.812;7.132;2023-02-01T05:18:30;7.40;72.00
4107;DHT22;21906;50.812;7.132;2023-02-01T05:20:55;7.40;72.10
4107;DHT22;21906;50.812;7.132;2023-02-01T05:23:21;7.40;72.10
4107;DHT22;21906;50.812;7.132;2023-02-01T05:25:47;7.40;71.70
4107;DHT22;21906;50.812;7.132;2023-02-01T05:28:12;7.40;71.70
4107;DHT22;21906;50.812;7.132;2023-02-01T05:30:38;7.40;71.50
4107;DHT22;21906;50.812;7.132;2023-02-01T05:33:04;7.40;71.60
4107;DHT22;21906;50.812;7.132;2023-02-01T05:35:30;7.20;72.10
4107;DHT22;21906;50.812;7.132;2023-02-01T05:37:56;7.30;71.70
4107;DHT22;21906;50.812;7.132;2023-02-01T05:40:21;7.30;71.70
4107;DHT22;21906;50.812;7.132;2023-02-01T05:42:47;7.40;71.10
4107;DHT22;21906;50.812;7.132;2023-02-01T05:45:13;7.40;71.20
4107;DHT22;21906;50.812;7.132;2023-02-01T05:47:39;7.30;71.30
4107;DHT22;21906;50.812;7.132;2023-02-01T05:50:05;7.40;71.00
4107;DHT22;21906;50.812;7.132;2023-02-01T05:52:31;7.40;71.00
4107;DHT22;21906;50.812;7.132;2023-02-01T05:54:57;7.30;71.00
4107;DHT22;21906;50.812;7.132;2023-02-01T05:57:23;7.30;70.90
4107;DHT22;21906;50.812;7.132;2023-02-01T05:59:48;7.40;70.70
4107;DHT22;21906;50.812;7.132;2023-02-01T06:02:17;7.30;70.60
4107;DHT22;21906;50.812;7.132;2023-02-01T06:04:43;7.30;70.30
4107;DHT22;21906;50.812;7.132;2023-02-01T06:07:09;7.30;70.50
4107;DHT22;21906;50.812;7.132;2023-02-01T06:09:36;7.20;70.60
4107;DHT22;21906;50.812;7.132;2023-02-01T06:12:03;7.20;70.60
4107;DHT22;21906;50.812;7.132;2023-02-01T06:14:28;7.20;70.50
4107;DHT22;21906;50.812;7.132;2023-02-01T06:16:55;7.20;70.40
4107;DHT22;21906;50.812;7.132;2023-02-01T06:19:21;7.20;70.40
4107;DHT22;21906;50.812;7.132;2023-02-01T06:21:47;7.20;70.20
4107;DHT22;21906;50.812;7.132;2023-02-01T06:24:13;7.20;70.50
4107;DHT22;21906;50.812;7.132;2023-02-01T06:26:39;7.20;70.40
4107;DHT22;21906;50.812;7.132;2023-02-01T06:29:11;7.20;70.30
4107;DHT22;21906;50.812;7.132;2023-02-01T06:31:37;7.10;70.60
4107;DHT22;21906;50.812;7.132;2023-02-01T06:34:03;7.20;70.50
4107;DHT22;21906;50.812;7.132;2023-02-01T06:36:29;7.20;70.40
4107;DHT22;21906;50.812;7.132;2023-02-01T06:38:56;7.20;70.30
4107;DHT22;21906;50.812;7.132;2023-02-01T06:41:23;7.20;70.30
4107;DHT22;21906;50.812;7.132;2023-02-01T06:43:49;7.10;70.40
4107;DHT22;21906;50.812;7.132;2023-02-01T06:46:15;7.20;70.50
4107;DHT22;21906;50.812;7.132;2023-02-01T06:48:40;7.20;70.30
4107;DHT22;21906;50.812;7.132;2023-02-01T06:51:12;7.20;70.30
4107;DHT22;21906;50.812;7.132;2023-02-01T06:53:41;7.20;70.30
4107;DHT22;21906;50.812;7.132;2023-02-01T06:56:08;7.20;70.50
4107;DHT22;21906;50.812;7.132;2023-02-01T06:58:34;7.20;70.50
4107;DHT22;21906;50.812;7.132;2023-02-01T07:01:07;7.10;70.80
4107;DHT22;21906;50.812;7.132;2023-02-01T07:03:33;7.10;70.80
4107;DHT22;21906;50.812;7.132;2023-02-01T07:05:59;7.10;70.90
4107;DHT22;21906;50.812;7.132;2023-02-01T07:08:28;7.00;71.00
4107;DHT22;21906;50.812;7.132;2023-02-01T07:10:54;7.10;71.20
4107;DHT22;21906;50.812;7.132;2023-02-01T07:13:20;7.20;70.90
4107;DHT22;21906;50.812;7.132;2023-02-01T07:15:45;7.20;70.70
4107;DHT22;21906;50.812;7.132;2023-02-01T07:18:15;7.10;71.00
4107;DHT22;21906;50.812;7.132;2023-02-01T07:20:41;7.10;70.90
4107;DHT22;21906;50.812;7.132;2023-02-01T07:23:09;7.10;71.10
4107;DHT22;21906;50.812;7.132;2023-02-01T07:25:35;7.00;71.50
4107;DHT22;21906;50.812;7.132;2023-02-01T07:28:00;6.90;71.50
4107;DHT22;21906;50.812;7.132;2023-02-01T07:30:26;7.00;71.80
4107;DHT22;21906;50.812;7.132;2023-02-01T07:32:52;6.90;71.70
4107;DHT22;21906;50.812;7.132;2023-02-01T07:35:17;7.00;71.60
4107;DHT22;21906;50.812;7.132;2023-02-01T07:37:43;7.10;71.20
4107;DHT22;21906;50.812;7.132;2023-02-01T07:40:09;7.20;71.00
4107;DHT22;21906;50.812;7.132;2023-02-01T07:42:35;7.10;71.10
4107;DHT22;21906;50.812;7.132;2023-02-01T07:45:01;7.20;70.80
4107;DHT22;21906;50.812;7.132;2023-02-01T07:47:28;7.10;71.00
4107;DHT22;21906;50.812;7.132;2023-02-01T07:49:57;7.20;71.20
4107;DHT22;21906;50.812;7.132;2023-02-01T07:52:23;7.20;71.10
4107;DHT22;21906;50.812;7.132;2023-02-01T07:54:48;7.10;71.10
4107;DHT22;21906;50.812;7.132;2023-02-01T07:57:14;7.20;71.10
4107;DHT22;21906;50.812;7.132;2023-02-01T07:59:39;7.30;70.90
4107;DHT22;21906;50.812;7.132;2023-02-01T08:02:28;7.20;70.80
4107;DHT22;21906;50.812;7.132;2023-02-01T08:04:53;7.30;70.90
4107;DHT22;21906;50.812;7.132;2023-02-01T08:07:19;7.30;70.80
4107;DHT22;21906;50.812;7.132;2023-02-01T08:09:44;7.30;70.60
4107;DHT22;21906;50.812;7.132;2023-02-01T08:12:10;7.30;70.80
4107;DHT22;21906;50.812;7.132;2023-02-01T08:14:36;7.30;70.70
4107;DHT22;21906;50.812;7.132;2023-02-01T08:17:01;7.40;70.60
4107;DHT22;21906;50.812;7.132;2023-02-01T08:19:27;7.40;70.50
4107;DHT22;21906;50.812;7.132;2023-02-01T08:21:53;7.40;70.40
4107;DHT22;21906;50.812;7.132;2023-02-01T08:24:18;7.50;70.20
4107;DHT22;21906;50.812;7.132;2023-02-01T08:26:44;7.40;70.30
4107;DHT22;21906;50.812;7.132;2023-02-01T08:29:10;7.40;70.50
4107;DHT22;21906;50.812;7.132;2023-02-01T08:31:38;7.40;70.60
4107;DHT22;21906;50.812;7.132;2023-02-01T08:34:06;7.40;70.40
4107;DHT22;21906;50.812;7.132;2023-02-01T08:36:33;7.40;70.00
4107;DHT22;21906;50.812;7.132;2023-02-01T08:39:00;7.50;70.00
4107;DHT22;21906;50.812;7.132;2023-02-01T08:41:28;7.60;70.00
4107;DHT22;21906;50.812;7.132;2023-02-01T08:43:55;7.50;70.30
4107;DHT22;21906;50.812;7.132;2023-02-01T08:46:22;7.50;70.50
4107;DHT22;21906;50.812;7.132;2023-02-01T08:48:48;7.50;70.20
4107;DHT22;21906;50.812;7.132;2023-02-01T08:51:15;7.60;69.80
4107;DHT22;21906;50.812;7.132;2023-02-01T08:53:41;7.70;69.50
4107;DHT22;21906;50.812;7.132;2023-02-01T08:56:09;7.60;69.40
4107;DHT22;21906;50.812;7.132;2023-02-01T08:58:36;7.60;69.70
4107;DHT22;21906;50.812;7.132;2023-02-01T09:01:13;7.60;69.90
4107;DHT22;21906;50.812;7.132;2023-02-01T09:03:39;7.80;69.80
4107;DHT22;21906;50.812;7.132;2023-02-01T09:06:07;7.90;69.30
4107;DHT22;21906;50.812;7.132;2023-02-01T09:08:34;7.90;68.90
4107;DHT22;21906;50.812;7.132;2023-02-01T09:11:02;8.00;69.00
4107;DHT22;21906;50.812;7.132;2023-02-01T09:13:28;7.90;69.30
4107;DHT22;21906;50.812;7.132;2023-02-01T09:15:54;7.90;68.90
4107;DHT22;21906;50.812;7.132;2023-02-01T09:18:19;8.00;68.80
4107;DHT22;21906;50.812;7.132;2023-02-01T09:20:45;8.00;68.70
4107;DHT22;21906;50.812;7.132;2023-02-01T09:23:11;8.00;68.90
4107;DHT22;21906;50.812;7.132;2023-02-01T09:25:37;8.10;68.70
4107;DHT22;21906;50.812;7.132;2023-02-01T09:28:04;8.10;68.50
4107;DHT22;21906;50.812;7.132;2023-02-01T09:30:32;8.20;68.20
4107;DHT22;21906;50.812;7.132;2023-02-01T09:32:58;8.20;68.10
4107;DHT22;21906;50.812;7.132;2023-02-01T09:35:24;8.40;68.10
4107;DHT22;21906;50.812;7.132;2023-02-01T09:37:51;8.40;67.50
4107;DHT22;21906;50.812;7.132;2023-02-01T09:40:17;8.30;67.50
4107;DHT22;21906;50.812;7.132;2023-02-01T09:48:36;8.40;67.30
4107;DHT22;21906;50.812;7.132;2023-02-01T09:51:04;8.30;67.90
4107;DHT22;21906;50.812;7.132;2023-02-01T09:53:38;8.40;68.00
4107;DHT22;21906;50.812;7.132;2023-02-01T09:56:38;8.40;67.70
4107;DHT22;21906;50.812;7.132;2023-02-01T10:02:09;8.50;67.20
4107;DHT22;21906;50.812;7.132;2023-02-01T10:04:36;8.40;67.80
4107;DHT22;21906;50.812;7.132;2023-02-01T10:07:33;8.40;67.60
4107;DHT22;21906;50.812;7.132;2023-02-01T10:10:15;8.40;67.80
4107;DHT22;21906;50.812;7.132;2023-02-01T10:26:22;8.20;67.90
4107;DHT22;21906;50.812;7.132;2023-02-01T10:28:56;8.30;67.70
4107;DHT22;21906;50.812;7.132;2023-02-01T10:31:26;8.40;67.60
4107;DHT22;21906;50.812;7.132;2023-02-01T10:34:00;8.60;67.30
4107;DHT22;21906;50.812;7.132;2023-02-01T10:36:35;8.50;67.10
4107;DHT22;21906;50.812;7.132;2023-02-01T10:39:05;8.50;66.80
4107;DHT22;21906;50.812;7.132;2023-02-01T10:41:35;8.60;66.40
4107;DHT22;21906;50.812;7.132;2023-02-01T10:44:03;8.70;65.80
4107;DHT22;21906;50.812;7.132;2023-02-01T10:46:33;8.70;65.90
4107;DHT22;21906;50.812;7.132;2023-02-01T10:49:02;8.80;65.50
4107;DHT22;21906;50.812;7.132;2023-02-01T10:51:57;8.90;65.80
4107;DHT22;21906;50.812;7.132;2023-02-01T10:54:37;9.00;65.20
4107;DHT22;21906;50.812;7.132;2023-02-01T10:57:31;9.00;64.70
4107;DHT22;21906;50.812;7.132;2023-02-01T10:59:57;9.10;64.50
4107;DHT22;21906;50.812;7.132;2023-02-01T11:02:33;9.20;64.30
4107;DHT22;21906;50.812;7.132;2023-02-01T11:05:08;9.30;63.50
4107;DHT22;21906;50.812;7.132;2023-02-01T11:07:36;9.30;63.70
4107;DHT22;21906;50.812;7.132;2023-02-01T11:10:03;9.40;63.70
4107;DHT22;21906;50.812;7.132;2023-02-01T11:12:35;9.60;63.30
4107;DHT22;21906;50.812;7.132;2023-02-01T11:15:20;9.60;63.00
4107;DHT22;21906;50.812;7.132;2023-02-01T11:17:48;9.50;62.60
4107;DHT22;21906;50.812;7.132;2023-02-01T11:20:20;9.50;62.20
4107;DHT22;21906;50.812;7.132;2023-02-01T11:22:48;9.40;62.80
4107;DHT22;21906;50.812;7.132;2023-02-01T11:25:17;9.50;62.00
4107;DHT22;21906;50.812;7.132;2023-02-01T11:27:44;9.40;61.90
4107;DHT22;21906;50.812;7.132;2023-02-01T11:30:16;9.30;61.70
4107;DHT22;21906;50.812;7.132;2023-02-01T11:32:42;9.20;62.50
4107;DHT22;21906;50.812;7.132;2023-02-01T11:35:15;9.10;63.70
4107;DHT22;21906;50.812;7.132;2023-02-01T11:37:43;9.10;63.20
4107;DHT22;21906;50.812;7.132;2023-02-01T11:42:35;9.10;63.60
4107;DHT22;21906;50.812;7.132;2023-02-01T11:45:28;9.30;63.50
4107;DHT22;21906;50.812;7.132;2023-02-01T11:47:56;9.20;63.50
4107;DHT22;21906;50.812;7.132;2023-02-01T11:50:35;9.30;63.40
4107;DHT22;21906;50.812;7.132;2023-02-01T11:53:43;9.40;63.20
4107;DHT22;21906;50.812;7.132;2023-02-01T12:10:51;9.10;63.00
4107;DHT22;21906;50.812;7.132;2023-02-01T12:13:37;9.10;63.20
4107;DHT22;21906;50.812;7.132;2023-02-01T12:16:32;9.00;63.40
4107;DHT22;21906;50.812;7.132;2023-02-01T12:24:43;8.90;63.20
4107;DHT22;21906;50.812;7.132;2023-02-01T12:43:33;9.10;62.80
4107;DHT22;21906;50.812;7.132;2023-02-01T12:49:14;9.20;62.90
4107;DHT22;21906;50.812;7.132;2023-02-01T12:51:44;9.20;62.10
4107;DHT22;21906;50.812;7.132;2023-02-01T12:56:42;9.20;62.00
4107;DHT22;21906;50.812;7.132;2023-02-01T12:59:51;9.20;62.20
4107;DHT22;21906;50.812;7.132;2023-02-01T13:02:24;9.20;62.30
4107;DHT22;21906;50.812;7.132;2023-02-01T13:05:27;9.30;62.60
4107;DHT22;21906;50.812;7.132;2023-02-01T13:08:56;9.30;62.70
4107;DHT22;21906;50.812;7.132;2023-02-01T13:11:31;9.30;62.20
4107;DHT22;21906;50.812;7.132;2023-02-01T13:16:46;9.20;62.00
4107;DHT22;21906;50.812;7.132;2023-02-01T13:19:25;9.10;62.60
4107;DHT22;21906;50.812;7.132;2023-02-01T13:21:59;9.10;62.30
4107;DHT22;21906;50.812;7.132;2023-02-01T13:26:56;9.00;63.20
4107;DHT22;21906;50.812;7.132;2023-02-01T13:29:23;8.90;63.10
4107;DHT22;21906;50.812;7.132;2023-02-01T13:40:47;8.90;64.30
4107;DHT22;21906;50.812;7.132;2023-02-01T13:43:27;8.90;65.20
4107;DHT22;21906;50.812;7.132;2023-02-01T13:45:57;9.00;64.90
4107;DHT22;21906;50.812;7.132;2023-02-01T13:48:31;9.00;65.40
4107;DHT22;21906;50.812;7.132;2023-02-01T13:50:59;9.00;65.50
4107;DHT22;21906;50.812;7.132;2023-02-01T13:53:35;8.90;65.60
4107;DHT22;21906;50.812;7.132;2023-02-01T13:56:12;8.90;66.10
4107;DHT22;21906;50.812;7.132;2023-02-01T13:58:41;8.90;66.50
4107;DHT22;21906;50.812;7.132;2023-02-01T14:03:55;8.90;66.50
4107;DHT22;21906;50.812;7.132;2023-02-01T14:09:30;8.90;66.60
4107;DHT22;21906;50.812;7.132;2023-02-01T14:11:57;8.80;66.80
4107;DHT22;21906;50.812;7.132;2023-02-01T14:19:21;8.90;66.30
4107;DHT22;21906;50.812;7.132;2023-02-01T14:21:50;8.90;65.90
4107;DHT22;21906;50.812;7.132;2023-02-01T14:26:54;8.90;65.60
4107;DHT22;21906;50.812;7.132;2023-02-01T14:29:34;9.00;65.50
4107;DHT22;21906;50.812;7.132;2023-02-01T14:32:18;9.00;65.40
4107;DHT22;21906;50.812;7.132;2023-02-01T14:47:49;9.10;64.80
4107;DHT22;21906;50.812;7.132;2023-02-01T15:01:29;9.10;64.50
4107;DHT22;21906;50.812;7.132;2023-02-01T15:04:18;9.10;64.40
4107;DHT22;21906;50.812;7.132;2023-02-01T15:09:31;9.10;64.50
4107;DHT22;21906;50.812;7.132;2023-02-01T15:14:38;9.20;64.40
4107;DHT22;21906;50.812;7.132;2023-02-01T15:17:19;9.10;64.60
4107;DHT22;21906;50.812;7.132;2023-02-01T15:19:55;9.00;64.80
4107;DHT22;21906;50.812;7.132;2023-02-01T15:22:22;9.10;63.90
4107;DHT22;21906;50.812;7.132;2023-02-01T15:24:56;9.10;64.10
4107;DHT22;21906;50.812;7.132;2023-02-01T15:27:22;9.10;63.70
4107;DHT22;21906;50.812;7.132;2023-02-01T15:29:48;9.10;63.70
4107;DHT22;21906;50.812;7.132;2023-02-01T15:32:35;9.20;63.30
4107;DHT22;21906;50.812;7.132;2023-02-01T15:35:01;9.20;63.40
4107;DHT22;21906;50.812;7.132;2023-02-01T15:37:28;9.10;63.70
4107;DHT22;21906;50.812;7.132;2023-02-01T15:42:51;9.20;63.00
4107;DHT22;21906;50.812;7.132;2023-02-01T15:45:19;9.20;63.20
4107;DHT22;21906;50.812;7.132;2023-02-01T15:47:50;9.30;63.00
4107;DHT22;21906;50.812;7.132;2023-02-01T15:50:18;9.30;63.30
4107;DHT22;21906;50.812;7.132;2023-02-01T15:52:47;9.30;62.90
4107;DHT22;21906;50.812;7.132;2023-02-01T15:57:48;9.30;63.40
4107;DHT22;21906;50.812;7.132;2023-02-01T16:03:01;9.30;63.10
4107;DHT22;21906;50.812;7.132;2023-02-01T16:05:40;9.40;62.80
4107;DHT22;21906;50.812;7.132;2023-02-01T16:08:19;9.30;63.00
4107;DHT22;21906;50.812;7.132;2023-02-01T16:10:48;9.40;62.80
4107;DHT22;21906;50.812;7.132;2023-02-01T16:13:15;9.30;63.10
4107;DHT22;21906;50.812;7.132;2023-02-01T16:15:41;9.30;63.80
4107;DHT22;21906;50.812;7.132;2023-02-01T16:18:08;9.20;64.60
4107;DHT22;21906;50.812;7.132;2023-02-01T16:20:36;9.20;65.60
4107;DHT22;21906;50.812;7.132;2023-02-01T16:23:02;9.10;66.80
4107;DHT22;21906;50.812;7.132;2023-02-01T16:25:29;9.10;67.30
4107;DHT22;21906;50.812;7.132;2023-02-01T16:27:55;9.00;67.60
4107;DHT22;21906;50.812;7.132;2023-02-01T16:30:20;9.00;67.90
4107;DHT22;21906;50.812;7.132;2023-02-01T16:32:57;9.00;68.50
4107;DHT22;21906;50.812;7.132;2023-02-01T16:35:34;8.90;69.10
4107;DHT22;21906;50.812;7.132;2023-02-01T16:38:21;8.90;69.70
4107;DHT22;21906;50.812;7.132;2023-02-01T16:40:49;8.80;70.90
4107;DHT22;21906;50.812;7.132;2023-02-01T16:45:43;8.50;73.40
4107;DHT22;21906;50.812;7.132;2023-02-01T16:48:34;8.40;74.50
4107;DHT22;21906;50.812;7.132;2023-02-01T16:51:11;8.40;74.80
4107;DHT22;21906;50.812;7.132;2023-02-01T16:53:37;8.30;75.00
4107;DHT22;21906;50.812;7.132;2023-02-01T16:56:17;8.40;75.30
4107;DHT22;21906;50.812;7.132;2023-02-01T16:58:44;8.40;75.00
4107;DHT22;21906;50.812;7.132;2023-02-01T17:01:14;8.40;75.40
4107;DHT22;21906;50.812;7.132;2023-02-01T17:03:41;8.40;75.90
4107;DHT22;21906;50.812;7.132;2023-02-01T17:06:10;8.40;75.80
4107;DHT22;21906;50.812;7.132;2023-02-01T17:08:38;8.40;76.10
4107;DHT22;21906;50.812;7.132;2023-02-01T17:11:06;8.30;76.20
4107;DHT22;21906;50.812;7.132;2023-02-01T17:13:33;8.30;76.30
4107;DHT22;21906;50.812;7.132;2023-02-01T17:19:06;8.20;76.20
4107;DHT22;21906;50.812;7.132;2023-02-01T17:21:42;8.20;76.60
4107;DHT22;21906;50.812;7.132;2023-02-01T17:24:19;8.20;76.70
4107;DHT22;21906;50.812;7.132;2023-02-01T17:26:45;8.20;76.60
4107;DHT22;21906;50.812;7.132;2023-02-01T17:29:12;8.10;76.90
4107;DHT22;21906;50.812;7.132;2023-02-01T17:31:41;8.20;77.20
4107;DHT22;21906;50.812;7.132;2023-02-01T17:34:09;8.10;77.50
4107;DHT22;21906;50.812;7.132;2023-02-01T17:36:35;8.10;77.40
4107;DHT22;21906;50.812;7.132;2023-02-01T17:39:01;8.10;77.40
4107;DHT22;21906;50.812;7.132;2023-02-01T17:41:27;8.00;77.80
4107;DHT22;21906;50.812;7.132;2023-02-01T17:43:53;8.10;77.80
4107;DHT22;21906;50.812;7.132;2023-02-01T17:46:19;8.10;77.80
4107;DHT22;21906;50.812;7.132;2023-02-01T17:48:45;8.20;77.40
4107;DHT22;21906;50.812;7.132;2023-02-01T17:51:18;8.10;77.40
4107;DHT22;21906;50.812;7.132;2023-02-01T17:53:44;8.00;77.90
4107;DHT22;21906;50.812;7.132;2023-02-01T17:56:19;8.10;77.50
4107;DHT22;21906;50.812;7.132;2023-02-01T17:58:45;8.00;77.50
4107;DHT22;21906;50.812;7.132;2023-02-01T18:01:28;8.20;77.00
4107;DHT22;21906;50.812;7.132;2023-02-01T18:03:54;8.20;76.80
4107;DHT22;21906;50.812;7.132;2023-02-01T18:06:24;8.20;76.90
4107;DHT22;21906;50.812;7.132;2023-02-01T18:08:51;8.20;76.70
4107;DHT22;21906;50.812;7.132;2023-02-01T18:11:22;8.20;76.50
4107;DHT22;21906;50.812;7.132;2023-02-01T18:13:50;8.20;76.70
4107;DHT22;21906;50.812;7.132;2023-02-01T18:16:24;8.20;76.50
4107;DHT22;21906;50.812;7.132;2023-02-01T18:18:50;8.20;77.30
4107;DHT22;21906;50.812;7.132;2023-02-01T18:21:18;8.20;77.40
4107;DHT22;21906;50.812;7.132;2023-02-01T18:23:44;8.20;77.00
4107;DHT22;21906;50.812;7.132;2023-02-01T18:26:14;8.20;77.10
4107;DHT22;21906;50.812;7.132;2023-02-01T18:28:40;8.20;76.70
4107;DHT22;21906;50.812;7.132;2023-02-01T18:31:07;8.20;76.70
4107;DHT22;21906;50.812;7.132;2023-02-01T18:33:37;8.10;76.40
4107;DHT22;21906;50.812;7.132;2023-02-01T18:36:03;8.20;76.50
4107;DHT22;21906;50.812;7.132;2023-02-01T18:38:29;8.10;76.60
4107;DHT22;21906;50.812;7.132;2023-02-01T18:40:55;8.10;76.60
4107;DHT22;21906;50.812;7.132;2023-02-01T18:43:23;8.10;76.30
4107;DHT22;21906;50.812;7.132;2023-02-01T18:45:49;8.20;75.80
4107;DHT22;21906;50.812;7.132;2023-02-01T18:48:16;8.20;75.90
4107;DHT22;21906;50.812;7.132;2023-02-01T18:50:44;8.30;75.40
4107;DHT22;21906;50.812;7.132;2023-02-01T18:53:14;8.20;75.50
4107;DHT22;21906;50.812;7.132;2023-02-01T18:55:40;8.20;75.40
4107;DHT22;21906;50.812;7.132;2023-02-01T18:58:06;8.20;75.50
4107;DHT22;21906;50.812;7.132;2023-02-01T19:00:33;8.30;74.90
4107;DHT22;21906;50.812;7.132;2023-02-01T19:03:00;8.30;75.10
4107;DHT22;21906;50.812;7.132;2023-02-01T19:05:26;8.30;74.70
4107;DHT22;21906;50.812;7.132;2023-02-01T19:07:52;8.30;74.80
4107;DHT22;21906;50.812;7.132;2023-02-01T19:10:20;8.30;74.50